hi-ho.ne.jp alexa rank chart, hi-ho.ne.jp alexa rank daily changes

hi-ho.ne.jp alexa rank chart, hi-ho.ne.jp alexa rank daily changes

hi-ho.ne.jp
Actual rank:
32 185

RANK HISTORY

Date Rank Diff
2018/12/16 32 185 -37 445
2018/12/15 69 630 +23 063
2018/12/14 46 567 +8 158
2018/12/13 38 409 +9 046
2018/12/12 29 363 -7 958
2018/12/11 37 321 +7 424
2018/12/10 29 897 -22 454
2018/12/09 52 351 +16 884
2018/12/08 35 467 -21 517
2018/12/07 56 984 +29 680
2018/12/06 27 304 -28 358
2018/12/05 55 662 +25 925
2018/12/04 29 737 +2 929
2018/12/03 26 808 -347
2018/12/02 27 155 -3 244
2018/12/01 30 399 -3 018
2018/11/30 33 417 -7 847
2018/11/29 41 264 +12 464
2018/11/28 28 800 -1 045
2018/11/27 29 845 -22 688
2018/11/26 52 533 -2 228
2018/11/25 54 761 +41 179
2018/11/24 13 582 -9 768
2018/11/23 23 350 -8 396
2018/11/22 31 746 +1 656
2018/11/21 30 090 -2 837
2018/11/20 32 927 +6 742
2018/11/19 26 185 -2 052
2018/11/18 28 237 -6 226
2018/11/17 34 463 -12 439
2018/11/16 46 902 -568
2018/11/15 47 470 +20 053
2018/11/14 27 417 -442
2018/11/13 27 859 -2 356
2018/11/12 30 215 -2 342
2018/11/11 32 557 +2 750
2018/11/10 29 807 -1 972
2018/11/09 31 779 +4 993
2018/11/08 26 786 +4 274
2018/11/07 22 512 -24 953
2018/11/06 47 465 +25 169
2018/11/05 22 296 -25 838
2018/11/04 48 134 +24 199
2018/11/03 23 935 +1 354
2018/11/02 22 581 -1 688
2018/11/01 24 269 +6 675
2018/10/31 17 594 -8 046
2018/10/30 25 640 -96 473
2018/10/29 122 113 +72 218
2018/10/28 49 895 +24 975
2018/10/27 24 920 -15 462
2018/10/26 40 382 -7 311
2018/10/25 47 693 +17 715
2018/10/24 29 978 -4 455
2018/10/23 34 433 -829
2018/10/22 35 262 -40 163
2018/10/21 75 425 +29 095
2018/10/20 46 330 -94 326
2018/10/19 140 656 +91 920
2018/10/18 48 736 +17 501
2018/10/17 31 235

WIDGET FOR YOUR SITE

DOMAINS WITH THE NEAREST RANK

Domain Rank
humankinetics.com 32 180
institutoacesso.org.br 32 181
bicycling.com 32 182
thebarchive.com 32 183
korepo.com 32 184
hi-ho.ne.jp 32 185
everything5pounds.com 32 186
rawkbawx.rocks 32 187
keepersecurity.com 32 188
macxdvd.com 32 189
latex.org 32 190

DOMAINS WITH THE NEAREST RANK BY TLD .ne.jp

Domain Rank
accesstrade.ne.jp 24 176
e-typing.ne.jp 27 501
gamecity.ne.jp 28 744
eonet.ne.jp 29 933
atpress.ne.jp 31 401
hi-ho.ne.jp 32 185
alij.ne.jp 34 536
wpx.ne.jp 34 890
jis-t.ne.jp 36 161